Flight Track Log - Related Links

Times and Time Zones

All times are in EST time to prevent confusion due to time zone crossing. See the UAL3756 flight status page for this flight to view local times or setup timezone preferences in your user account.

Time Position Orientation Groundspeed Altitude Reporting Facility
EST Latitude Longitude Course Direction KTS MPH feet Rate Location/Type
Sat 08:49:30 PM 42.0333 -87.9167 90° East 223 257 3,300  Level Chicago TRACON
Sat 08:51:19 PM 42.1264 -87.8372 32° Northeast 243 280 5,900 1,871 Climbing Chicago Center
Sat 08:52:20 PM 42.1642 -87.7297 65° Northeast 279 321 8,600 2,607 Climbing Chicago Center
Sat 08:53:21 PM 42.1847 -87.6153 76° East 304 350 11,200 1,721 Climbing Chicago Center
Sat 08:54:00 PM 42.0895 -87.0443 90° East  Level Estimated
Sat 08:54:22 PM 42.2081 -87.4908 76° East 331 381 12,100  Level Chicago Center
Sat 08:55:23 PM 42.2311 -87.3439 78° East 383 441 14,000 1,659 Climbing Chicago Center
Sat 08:56:25 PM 42.2589 -87.1922 76° East 406 467 15,500 1,561 Climbing Chicago Center
Sat 08:57:26 PM 42.2836 -87.0342 78° East 421 484 17,200 1,279 Climbing Chicago Center
Sat 08:58:27 PM 42.2872 -86.8631 88° East 444 511 18,100 1,180 Climbing Chicago Center
Sat 08:59:28 PM 42.2950 -86.6756 87° East 463 533 19,600 1,377 Climbing Chicago Center
Sat 09:00:29 PM 42.3011 -86.5047 87° East 478 550 20,900 1,180 Climbing Chicago Center
Sat 09:01:30 PM 42.3078 -86.3222 87° East 488 562 22,000 984 Climbing Chicago Center
Sat 09:02:31 PM 42.3139 -86.1314 87° East 507 583 22,900 934 Climbing Chicago Center
Sat 09:03:32 PM 42.3147 -85.9358 90° East 521 600 23,900 1,082 Climbing Chicago Center
Sat 09:04:33 PM 42.3108 -85.6961 91° East 534 615 25,100 976 Climbing Chicago Center
Sat 09:05:35 PM 42.3103 -85.4914 90° East 545 627 25,900 829 Climbing Chicago Center
Sat 09:06:36 PM 42.3236 -85.2814 85° East 561 646 26,800 836 Climbing Chicago Center
Sat 09:07:37 PM 42.3353 -85.0717 86° East 563 648 27,600 689 Climbing Chicago Center
Sat 09:08:38 PM 42.3464 -84.8581 86° East 569 655 28,200 541 Climbing Chicago Center
Sat 09:09:39 PM 42.3575 -84.6428 86° East 575 662 28,700 541 Climbing Chicago Center
Sat 09:10:40 PM 42.3681 -84.4222 86° East 584 672 29,300 632 Climbing Chicago Center
Sat 09:11:33 PM 42.3758 -84.2211 87° East 591 680 29,900 526 Climbing Cleveland Center
Sat 09:12:34 PM 42.3858 -83.9981 86° East 595 685 30,300 443 Climbing Cleveland Center
Sat 09:13:35 PM 42.3961 -83.7722 86° East 599 689 30,800 836 Climbing Cleveland Center
Sat 09:14:36 PM 42.4042 -83.5194 87° East 593 682 32,000 836 Climbing Cleveland Center
Sat 09:15:37 PM 42.4136 -83.2947 87° East 593 682 32,500 496 Climbing Cleveland Center
Sat 09:16:37 PM 42.4214 -83.0883 87° East 597 687 33,000 694 Climbing Cleveland Center
Sat 09:17:38 PM 42.4283 -82.8636 88° East 598 688 33,900 836 Climbing Cleveland Center
Sat 09:18:39 PM 42.4356 -82.6397 87° East 597 687 34,700 541 Climbing Cleveland Center
Sat 09:19:40 PM 42.4422 -82.4147 88° East 599 689 35,000 148 Climbing Cleveland Center
Sat 09:20:41 PM 42.4481 -82.1825 88° East 613 705 35,000  Level Cleveland Center
Sat 09:21:41 PM 42.4547 -81.9092 88° East 629 724 35,000  Level Cleveland Center
Sat 09:22:42 PM 42.4608 -81.6653 88° East 637 733 35,000  Level Cleveland Center
Sat 09:23:43 PM 42.4664 -81.4267 88° East 631 726 35,000  Level Cleveland Center
Sat 09:24:44 PM 42.4703 -81.1878 89° East 628 723 35,000  Level Cleveland Center
Sat 09:25:44 PM 42.4750 -80.9497 88° East 627 722 35,000  Level Cleveland Center
Sat 09:26:45 PM 42.4789 -80.7094 89° East 630 725 35,000  Level Cleveland Center
Sat 09:27:46 PM 42.4828 -80.4725 89° East 627 722 35,000  Level Cleveland Center
Sat 09:28:46 PM 42.4853 -80.2314 89° East 634 730 35,000  Level Cleveland Center
Sat 09:29:47 PM 42.4878 -79.9906 89° East 633 728 35,000  Level Cleveland Center
Sat 09:30:48 PM 42.4881 -79.7422 90° East 634 730 35,000  Level Cleveland Center
Sat 09:31:48 PM 42.4897 -79.5017 89° East 640 736 35,000  Level Cleveland Center
Sat 09:32:49 PM 42.4906 -79.2631 90° East 637 733 35,000  Level Cleveland Center
Sat 09:33:50 PM 42.5058 -79.0258 85° East 633 728 35,000  Level Cleveland Center
Sat 09:34:50 PM 42.5225 -78.7867 85° East 638 734 35,000  Level Cleveland Center
Sat 09:35:51 PM 42.5389 -78.5486 85° East 636 732 35,000  Level Cleveland Center
Sat 09:36:52 PM 42.5553 -78.3147 84° East 630 725 35,000  Level Cleveland Center
Sat 09:37:52 PM 42.5689 -78.0758 85° East 634 730 35,000  Level Cleveland Center
Sat 09:38:53 PM 42.5831 -77.8403 85° East 634 730 35,000  Level Cleveland Center
Sat 09:39:54 PM 42.5975 -77.6014 85° East 634 730 35,000  Level Cleveland Center
Sat 09:40:54 PM 42.6114 -77.3381 86° East 631 726 35,000  Level Cleveland Center
Sat 09:41:55 PM 42.6236 -77.1011 86° East 631 726 35,000  Level Cleveland Center
Sat 09:42:52 PM 42.6339 -76.9128 86° East 630 725 35,000  Level Boston Center
Sat 09:43:53 PM 42.6458 -76.6758 86° East 631 726 35,000  Level Boston Center
Sat 09:44:54 PM 42.6575 -76.4386 86° East 630 725 35,000  Level Boston Center
Sat 09:45:55 PM 42.6686 -76.1825 87° East 634 730 35,000  Level Boston Center
Sat 09:46:55 PM 42.6794 -75.9461 86° East 633 728 35,000 -50 Level Boston Center
Sat 09:47:56 PM 42.6889 -75.7100 87° East 633 728 34,900 -639 Descending Boston Center
Sat 09:48:57 PM 42.6981 -75.4739 87° East 633 728 33,700 -1,388 Descending Boston Center
Sat 09:49:57 PM 42.7064 -75.2453 87° East 617 710 32,100 -1,525 Descending Boston Center
Sat 09:50:55 PM 42.7139 -75.0208 87° East 604 695 30,700 -1,450 Descending Boston Center
Sat 09:51:57 PM 42.7206 -74.8075 87° East 577 664 29,200 -823 Descending Boston Center
Sat 09:52:59 PM 42.7286 -74.5553 87° East 564 649 29,000 -198 Descending Boston Center
Sat 09:53:58 PM 42.7350 -74.3494 88° East 552 635 28,800 -350 Descending Boston Center
Sat 09:54:59 PM 42.7411 -74.1439 88° East 549 632 28,300 -443 Descending Boston Center
Sat 09:56:00 PM 42.7431 -73.9656 89° East 542 624 27,900 -443 Descending Boston Center
Sat 09:57:01 PM 42.7486 -73.7592 88° East 544 626 27,400 -1,279 Descending Boston Center
Sat 09:58:02 PM 42.7569 -73.5558 87° East 539 620 25,300 -2,331 Descending Boston Center
Sat 09:59:02 PM 42.7642 -73.3581 87° East 524 603 22,700 -2,430 Descending Boston Center
Sat 10:00:03 PM 42.7711 -73.1644 87° East 513 590 20,400 -2,150 Descending Boston Center
Sat 10:01:02 PM 42.7764 -72.9750 88° East 499 574 18,400 -1,686 Descending Boston Center
Sat 10:02:04 PM 42.7828 -72.7822 87° East 502 578 17,000 -1,574 Descending Boston Center
Sat 10:03:04 PM 42.7875 -72.6017 88° East 477 549 15,200 -1,785 Descending Boston Center
Sat 10:04:05 PM 42.7922 -72.4278 88° East 460 529 13,400 -1,686 Descending Boston Center
Sat 10:05:05 PM 42.7986 -72.2386 87° East 433 498 11,800 -1,339 Descending Boston Center
Sat 10:06:06 PM 42.8094 -72.1008 84° East 369 425 10,700 -1,041 Descending Boston Center
Sat 10:07:06 PM 42.8178 -71.9828 84° East 315 362 9,700 -1,240 Descending Boston Center
Sat 10:08:07 PM 42.8147 -71.8622 92° East 298 343 8,200 -1,377 Descending Boston Center
Sat 10:09:08 PM 42.8078 -71.7508 95° East 296 341 6,900 -1,160 Descending Boston Center
Sat 10:10:06 PM 42.8003 -71.6508 96° East 270 311 5,900 -1,017 Descending Boston Center
Sat 10:11:06 PM 42.7936 -71.5575 96° East 252 290 4,900 -976 Descending Boston Center
Sat 10:12:09 PM 42.7897 -71.4672 93° East 241 277 3,900 -919 Descending Boston Center
Sat 10:13:10 PM 42.7961 -71.3861 84° East 215 247 3,000 -950 Descending Boston Center
Sat 10:14:09 PM 42.8278 -71.3717 18° North 136 157 2,000 -650 Descending Boston Center
Sat 10:15:10 PM 42.8619 -71.3911 337° Northwest 132 152 1,700 -600 Descending Boston Center
Sat 10:16:09 PM 42.8992 -71.4128 337° Northwest 135 155 800 -756 Descending Boston Center
Sat 10:17:09 PM 42.9294 -71.4325 335° Northwest 136 157 200 -600 Descending Boston Center

Login

Don't have an account? Register now (free) for customized features, flight alerts, and more!